ADDS METAR Data INFO
IDs: Format: Raw Decoded Include TAF

Data at: 2112 UTC 22 Oct 2017

KGGW 222053Z AUTO 29023G32KT 10SM FEW110 19/03 A2957 RMK AO2 PK WND 28032/2053 SLP020 T01890033 55009
KGGW 221953Z AUTO 26020G28KT 10SM CLR 17/03 A2956 RMK AO2 PK WND 25033/1921 SLP021 T01670033
KGGW 221853Z AUTO 27025G29KT 10SM CLR 16/03 A2957 RMK AO2 PK WND 26030/1840 SLP022 T01610033
KGGW 221753Z AUTO 24008KT 10SM FEW046 SCT070 OVC095 13/05 A2960 RMK AO2 RAE44 SLP035 P0000 60000 T01280050 10128 20011 58013
KGGW 221653Z AUTO 26005KT 10SM -RA OVC070 10/04 A2962 RMK AO2 RAE1557B42 SLP043 P0000 T01000044
KGGW 221553Z AUTO 22006KT 10SM -RA OVC060 09/02 A2963 RMK AO2 RAB15 SLP046 P0000 T00890022
KGGW 221453Z AUTO 16009KT 10SM OVC070 06/M01 A2964 RMK AO2 SLP052 T00611011 56017
KGGW 221353Z AUTO 13008KT 10SM OVC075 04/M02 A2965 RMK AO2 SLP057 T00441022
KGGW 221253Z AUTO 14010KT 10SM OVC070 03/M02 A2967 RMK AO2 SLP061 T00281017
KGGW 221153Z AUTO 11008KT 10SM CLR 01/M03 A2969 RMK AO2 SLP069 T00111033 10028 21006 58025
KGGW 221053Z AUTO 11008KT 10SM CLR 00/M04 A2972 RMK AO2 SLP078 T00001044
KGGW 220953Z AUTO 16005KT 10SM CLR 01/M06 A2975 RMK AO2 SLP086 T00111056
KGGW 220853Z AUTO 18003KT 10SM CLR 01/M06 A2977 RMK AO2 SLP094 T00111056 58013
KGGW 220753Z AUTO 00000KT 10SM CLR M01/M06 A2979 RMK AO2 SLP103 T10061056
KGGW 220653Z AUTO 27006KT 10SM CLR 01/M05 A2981 RMK AO2 SLP109 T00111050 401330011
KGGW 220553Z AUTO 27006KT 10SM CLR 02/M04 A2981 RMK AO2 SLP110 T00171044 10106 20011 56002
KGGW 220453Z AUTO 26005KT 10SM CLR 03/M05 A2981 RMK AO2 SLP110 T00331050
KGGW 220353Z AUTO 25004KT 10SM CLR 04/M05 A2981 RMK AO2 SLP110 T00391050
KGGW 220253Z AUTO 24005KT 10SM CLR 04/M04 A2982 RMK AO2 SLP113 T00441044 51010
KGGW 220153Z AUTO 26005KT 10SM CLR 06/M04 A2981 RMK AO2 SLP111 T00561039
KGGW 220053Z AUTO 28008KT 10SM CLR 08/M04 A2980 RMK AO2 SLP105 T00781039
KGGW 212353Z AUTO 28014KT 10SM CLR 11/M04 A2979 RMK AO2 PK WND 30027/2303 SLP096 T01111039 10133 20100 53013
KGGW 212253Z AUTO 30021G26KT 10SM FEW065 13/M04 A2977 RMK AO2 PK WND 30032/2159 SLP090 T01281039
KGGW 212153Z AUTO 30023G31KT 10SM CLR 13/M03 A2976 RMK AO2 PK WND 29034/2137 SLP085 T01281033
KGGW 212053Z AUTO 29024G32KT 10SM CLR 13/M03 A2975 RMK AO2 PK WND 28034/2019 SLP080 T01281028 53008
KGGW 211953Z AUTO 30023G31KT 10SM FEW055 13/M01 A2973 RMK AO2 PK WND 31035/1855 SLP073 T01281006
KGGW 211853Z AUTO 30025G35KT 10SM FEW045 12/M02 A2972 RMK AO2 PK WND 30037/1806 SLP072 T01171017
KGGW 211753Z AUTO 30025G36KT 10SM CLR 10/00 A2972 RMK AO2 PK WND 28036/1745 SLP072 60000 T01000000 10111 20061 51018
KGGW 211653Z AUTO 30023G36KT 10SM FEW080 10/02 A2970 RMK AO2 PK WND 29036/1644 SLP066 T01000017
KGGW 211553Z AUTO 29020G29KT 10SM FEW021 SCT041 SCT049 08/03 A2969 RMK AO2 PK WND 29029/1544 SLP063 T00780033
KGGW 211542Z AUTO 29020G26KT 10SM FEW020 BKN039 OVC049 07/04 A2969 RMK AO2 PK WND 29026/1536 T00720039
KGGW 211453Z AUTO 29016G24KT 10SM OVC022 06/04 A2966 RMK AO2 PK WND 29027/1410 RAB05E34 SLP051 P0000 60000 T00610039 53028
KGGW 211440Z AUTO 28018G25KT 10SM BKN022 BKN029 OVC037 06/04 A2966 RMK AO2 PK WND 29027/1410 RAB05E34 P0000 T00610039
KGGW 211417Z AUTO 29018G27KT 10SM -RA FEW019 BKN041 OVC095 06/04 A2965 RMK AO2 PK WND 29027/1410 RAB05 P0000 T00610039
KGGW 211353Z AUTO 28021G28KT 10SM FEW015 BKN024 OVC085 06/04 A2963 RMK AO2 PK WND 28031/1316 RAB1258E15 SLP041 P0000 T00610039
KGGW 211253Z AUTO 27022G28KT 10SM OVC021 06/04 A2960 RMK AO2 PK WND 27031/1242 SLP028 T00610039
KGGW 211153Z AUTO 29019G27KT 10SM OVC020 06/04 A2957 RMK AO2 PK WND 27030/1130 RAB09E26 SLP016 P0000 60000 70001 T00610039 10089 20061 53028
KGGW 211130Z AUTO 28021G30KT 10SM SCT013 OVC020 06/04 A2956 RMK AO2 PK WND 27030/1130 RAB09E26 P0000 T00610044
KGGW 211106Z AUTO 27018G24KT 10SM BKN013 OVC019 06/04 A2954 RMK AO2 T00610044
KGGW 211053Z AUTO 28018G27KT 10SM SCT013 BKN021 OVC027 06/04 A2954 RMK AO2 PK WND 29034/1015 SLP001 T00610044
KGGW 210953Z AUTO 29021G30KT 10SM BKN022 OVC027 07/03 A2949 RMK AO2 PK WND 28033/0857 SLP984 T00720033